Time;durP1;ratioP1;P1;durP2;ratioP2;P2;SDS_P1;SDS_P2;PMS_P1;PMS_P2;Temp;Humidity;BMP_temperature;BMP_pressure;BME280_temperature;BME280_humidity;BME280_pressure;Samples;Min_cycle;Max_cycle;Signal;HPM_P1;HPM_P2
2022/03/24 00:02:11;;;;;;;6.60;6.10;;;;;;;6.14;54.00;100274.59;5054242;28;20657;-67
2022/03/24 00:04:38;;;;;;;9.00;5.77;;;;;;;6.07;53.68;100267.78;5072241;28;20250;-67
2022/03/24 00:07:06;;;;;;;8.53;6.40;;;;;;;6.07;53.40;100258.47;5068623;28;20276;-66
2022/03/24 00:09:33;;;;;;;9.27;7.27;;;;;;;6.00;53.80;100261.84;5053958;28;20216;-67
2022/03/24 00:12:00;;;;;;;14.27;8.43;;;;;;;5.87;54.54;100256.72;5053802;28;20205;-67
2022/03/24 00:14:28;;;;;;;11.67;8.17;;;;;;;5.75;55.65;100254.97;5053784;28;20315;-67
2022/03/24 00:16:55;;;;;;;6.70;6.10;;;;;;;5.54;56.23;100259.97;5053788;28;20224;-66
2022/03/24 00:19:22;;;;;;;7.10;6.40;;;;;;;5.56;56.59;100248.09;5053842;28;20295;-66
2022/03/24 00:21:50;;;;;;;6.57;5.50;;;;;;;5.57;56.64;100234.53;5053771;28;20208;-66
2022/03/24 00:24:16;;;;;;;6.67;6.07;;;;;;;5.54;56.82;100237.06;5056485;28;20198;-67
2022/03/24 00:26:43;;;;;;;6.50;6.03;;;;;;;5.53;56.87;100248.09;5073658;28;20291;-67
2022/03/24 00:29:10;;;;;;;5.63;5.23;;;;;;;5.35;56.77;100223.47;5073517;28;20569;-67
2022/03/24 00:31:39;;;;;;;5.13;4.67;;;;;;;5.41;56.63;100236.19;5073511;28;20295;-66
2022/03/24 00:34:06;;;;;;;7.27;5.73;;;;;;;5.28;57.74;100212.41;5073375;28;20674;-66
2022/03/24 00:36:33;;;;;;;6.17;5.67;;;;;;;5.25;57.64;100214.94;5072888;28;20207;-67
2022/03/24 00:39:00;;;;;;;6.97;6.20;;;;;;;5.15;58.21;100225.91;5072970;28;20204;-67
2022/03/24 00:41:28;;;;;;;11.60;6.73;;;;;;;5.12;57.91;100214.88;5073274;28;20272;-66
2022/03/24 00:43:56;;;;;;;5.90;5.50;;;;;;;5.12;58.05;100215.72;5073444;28;20211;-66
2022/03/24 00:46:23;;;;;;;7.10;5.97;;;;;;;5.08;58.14;100215.69;5073095;28;20208;-67
2022/03/24 00:48:53;;;;;;;5.97;5.33;;;;;;;5.08;58.47;100211.47;5073411;28;20211;-66
2022/03/24 00:51:20;;;;;;;10.33;6.40;;;;;;;5.01;58.38;100212.28;5073073;28;20291;-67
2022/03/24 00:53:47;;;;;;;9.70;6.10;;;;;;;4.97;58.48;100210.59;5073061;28;20307;-67
2022/03/24 00:56:14;;;;;;;6.93;6.33;;;;;;;4.42;60.70;100208.53;5072942;28;20291;-67
2022/03/24 00:58:41;;;;;;;8.43;6.13;;;;;;;4.30;61.58;100200.81;5064498;28;20228;-66
2022/03/24 01:01:10;;;;;;;7.97;6.13;;;;;;;4.37;61.83;100194.94;5069046;28;20764;-66
2022/03/24 01:03:38;;;;;;;7.77;6.27;;;;;;;4.43;61.61;100189.91;5072685;28;20223;-67
2022/03/24 01:06:07;;;;;;;10.60;6.10;;;;;;;4.09;62.93;100178.66;5072839;28;20691;-66
2022/03/24 01:08:35;;;;;;;6.13;5.17;;;;;;;4.23;63.36;100187.25;5072739;28;20676;-67
2022/03/24 01:11:05;;;;;;;5.20;4.70;;;;;;;4.28;62.88;100179.63;5072739;28;20203;-66
2022/03/24 01:13:34;;;;;;;5.40;4.90;;;;;;;4.29;62.68;100196.56;5072518;28;20215;-66
2022/03/24 01:16:03;;;;;;;7.67;5.50;;;;;;;4.21;63.24;100184.69;5072787;28;20204;-66
2022/03/24 01:18:34;;;;;;;5.60;5.00;;;;;;;4.16;63.64;100190.56;5072552;28;20636;-67
2022/03/24 01:21:03;;;;;;;7.33;5.90;;;;;;;3.89;65.50;100186.09;5072672;28;20703;-66
2022/03/24 01:23:32;;;;;;;8.47;5.70;;;;;;;3.81;65.60;100171.66;5072402;28;20207;-66
2022/03/24 01:26:00;;;;;;;12.83;5.80;;;;;;;3.84;65.67;100167.47;5073148;28;20665;-66
2022/03/24 01:28:27;;;;;;;5.47;5.07;;;;;;;3.88;65.70;100169.16;5072408;28;20640;-65
2022/03/24 01:30:54;;;;;;;5.90;5.30;;;;;;;3.88;65.60;100169.16;5072381;28;20204;-68
2022/03/24 01:33:22;;;;;;;7.10;6.47;;;;;;;3.77;65.36;100169.91;5072327;28;20783;-67
2022/03/24 01:35:49;;;;;;;7.87;6.27;;;;;;;3.74;65.42;100170.75;5072149;28;20638;-66
2022/03/24 01:38:17;;;;;;;7.30;6.50;;;;;;;3.65;66.43;100168.13;5072234;28;20207;-66
2022/03/24 01:40:45;;;;;;;7.33;6.60;;;;;;;3.54;66.32;100165.47;5072168;28;20277;-66
2022/03/24 01:43:12;;;;;;;6.93;6.30;;;;;;;3.55;66.43;100158.72;5072234;28;20294;-66
2022/03/24 01:45:39;;;;;;;7.70;7.00;;;;;;;3.35;67.06;100142.44;5072064;28;20222;-65
2022/03/24 01:48:08;;;;;;;8.33;6.53;;;;;;;3.28;67.27;100149.13;5071851;28;20199;-66
2022/03/24 01:50:35;;;;;;;7.33;6.60;;;;;;;3.34;67.19;100153.41;5072003;28;20199;-64
2022/03/24 01:53:04;;;;;;;7.27;6.63;;;;;;;3.34;67.16;100148.34;5072059;28;20590;-65
2022/03/24 01:55:32;;;;;;;9.07;7.00;;;;;;;3.35;67.23;100150.06;5072129;28;20734;-66
2022/03/24 01:58:00;;;;;;;7.37;6.33;;;;;;;3.28;67.02;100153.34;5068816;28;20259;-66
2022/03/24 02:00:28;;;;;;;7.73;6.83;;;;;;;3.08;67.59;100141.31;5051937;28;20204;-66
2022/03/24 02:02:55;;;;;;;8.20;7.47;;;;;;;3.03;68.13;100157.28;5051832;28;20232;-66
2022/03/24 02:05:22;;;;;;;8.57;7.17;;;;;;;2.91;68.68;100157.16;5051870;28;20205;-66
2022/03/24 02:07:50;;;;;;;7.13;6.43;;;;;;;2.98;68.74;100149.63;5051776;28;20757;-66
2022/03/24 02:10:17;;;;;;;8.77;7.63;;;;;;;2.98;68.76;100147.09;5051932;28;20234;-66
2022/03/24 02:12:45;;;;;;;8.07;7.27;;;;;;;3.06;68.42;100154.78;5051807;28;20209;-66
2022/03/24 02:15:15;;;;;;;8.27;7.40;;;;;;;3.09;68.20;100159.91;5051640;28;20315;-66
2022/03/24 02:17:42;;;;;;;10.17;6.93;;;;;;;3.10;68.09;100149.75;5051913;28;20212;-66
2022/03/24 02:20:10;;;;;;;7.80;7.10;;;;;;;3.09;67.71;100158.22;5051658;28;20299;-66
2022/03/24 02:22:38;;;;;;;8.07;6.67;;;;;;;3.11;67.38;100146.41;5052527;28;20213;-66
2022/03/24 02:25:09;;;;;;;7.30;6.70;;;;;;;2.97;67.25;100152.97;5051412;28;20197;-65
2022/03/24 02:27:36;;;;;;;8.07;7.30;;;;;;;2.95;67.02;100146.19;5051710;28;20244;-66
2022/03/24 02:30:04;;;;;;;9.50;7.37;;;;;;;3.00;67.00;100142.91;5051468;28;20728;-65
2022/03/24 02:32:31;;;;;;;12.27;7.90;;;;;;;2.94;66.72;100106.53;5051610;28;20212;-68
2022/03/24 02:34:58;;;;;;;6.93;6.23;;;;;;;3.02;66.24;100126.03;5051433;28;20216;-67
2022/03/24 02:37:28;;;;;;;11.10;7.43;;;;;;;3.11;65.94;100141.34;5051699;28;20534;-68
2022/03/24 02:39:57;;;;;;;9.13;6.70;;;;;;;3.02;66.05;100126.03;5051557;28;20211;-68
2022/03/24 02:42:26;;;;;;;10.30;7.57;;;;;;;3.10;65.91;100134.56;5051781;28;20207;-67
2022/03/24 02:44:55;;;;;;;8.63;7.83;;;;;;;2.97;65.85;100117.53;5051435;28;20287;-68
2022/03/24 02:47:23;;;;;;;9.53;7.13;;;;;;;3.12;65.19;100149.78;5051302;28;20204;-68
2022/03/24 02:49:51;;;;;;;9.10;7.03;;;;;;;3.11;65.27;100141.34;5051421;28;20208;-68
2022/03/24 02:52:19;;;;;;;6.90;6.17;;;;;;;3.00;65.20;100144.59;5051325;28;20613;-67
2022/03/24 02:54:46;;;;;;;6.53;6.03;;;;;;;2.82;66.52;100137.59;5051463;28;20311;-68
2022/03/24 02:57:15;;;;;;;8.00;5.90;;;;;;;2.86;66.26;100134.28;5071061;28;20196;-68
2022/03/24 02:59:42;;;;;;;7.07;6.43;;;;;;;2.76;66.18;100122.34;5071331;28;20298;-67
2022/03/24 03:02:11;;;;;;;12.50;6.40;;;;;;;2.80;66.28;100135.88;5074783;28;20291;-68
2022/03/24 03:04:38;;;;;;;7.27;6.10;;;;;;;2.80;66.54;100133.34;5075374;28;20287;-67
2022/03/24 03:07:05;;;;;;;6.73;6.10;;;;;;;2.64;66.99;100129.78;5075238;28;20208;-68
2022/03/24 03:09:34;;;;;;;7.50;5.70;;;;;;;2.65;66.85;100123.88;5069055;28;20712;-68
2022/03/24 03:12:01;;;;;;;6.90;6.20;;;;;;;2.63;67.07;100130.59;5055130;28;20719;-68
2022/03/24 03:14:30;;;;;;;6.90;5.97;;;;;;;2.48;67.10;100125.34;5054799;28;20315;-68
2022/03/24 03:16:57;;;;;;;6.70;5.90;;;;;;;2.42;67.49;100126.13;5054950;28;20200;-68
2022/03/24 03:19:24;;;;;;;6.70;6.10;;;;;;;2.49;67.18;100116.91;5054812;28;20200;-67
2022/03/24 03:21:52;;;;;;;8.80;5.90;;;;;;;2.55;67.02;100120.38;5069264;28;20286;-68
2022/03/24 03:24:21;;;;;;;7.93;5.73;;;;;;;2.63;66.85;100115.41;5075167;28;20298;-68
2022/03/24 03:26:48;;;;;;;9.67;6.70;;;;;;;2.66;66.60;100107.84;5074717;28;20208;-67
2022/03/24 03:29:17;;;;;;;6.73;6.03;;;;;;;2.71;66.49;100108.78;5074689;28;20204;-67
2022/03/24 03:31:46;;;;;;;5.93;5.33;;;;;;;2.74;66.30;100107.97;5074558;28;20660;-68
2022/03/24 03:34:14;;;;;;;6.60;5.90;;;;;;;2.71;66.00;100121.44;5074624;28;20665;-68
2022/03/24 03:36:42;;;;;;;10.80;6.97;;;;;;;2.43;66.86;100132.00;5074459;28;20204;-68
2022/03/24 03:39:09;;;;;;;9.03;7.93;;;;;;;2.28;67.90;100121.69;5074553;28;20253;-68
2022/03/24 03:41:39;;;;;;;14.63;8.07;;;;;;;2.06;68.90;100108.72;5074381;28;20290;-68
2022/03/24 03:44:07;;;;;;;9.03;7.50;;;;;;;2.05;69.26;100108.69;5074592;28;20674;-67
2022/03/24 03:46:34;;;;;;;7.60;6.80;;;;;;;2.15;69.18;100118.13;5074293;28;20199;-67
2022/03/24 03:49:03;;;;;;;12.63;6.67;;;;;;;2.08;69.37;100104.53;5070998;28;20193;-69
2022/03/24 03:51:31;;;;;;;11.53;8.07;;;;;;;1.72;71.57;100125.84;5054319;28;20232;-69
2022/03/24 03:53:58;;;;;;;7.10;6.50;;;;;;;1.59;72.43;100091.94;5054103;28;20224;-68
2022/03/24 03:56:25;;;;;;;6.37;5.73;;;;;;;1.85;72.16;100115.97;5054271;28;20205;-67
2022/03/24 03:58:52;;;;;;;11.33;5.97;;;;;;;1.93;71.73;100109.38;5053950;28;20228;-68
2022/03/24 04:01:19;;;;;;;8.10;5.90;;;;;;;1.95;71.45;100087.47;5054273;28;20291;-67
2022/03/24 04:03:47;;;;;;;6.83;6.30;;;;;;;2.13;71.25;100102.91;5054010;28;20220;-68
2022/03/24 04:06:15;;;;;;;6.80;5.80;;;;;;;2.16;70.84;100101.28;5054024;28;20208;-68
2022/03/24 04:08:44;;;;;;;8.87;7.17;;;;;;;2.11;70.99;100109.63;5054258;28;20299;-65
2022/03/24 04:11:12;;;;;;;10.57;6.53;;;;;;;2.17;71.12;100102.94;5053972;28;20287;-68
2022/03/24 04:13:41;;;;;;;10.63;7.00;;;;;;;2.13;71.65;100091.13;5053832;28;20562;-68
2022/03/24 04:16:11;;;;;;;9.43;6.33;;;;;;;2.19;71.56;100098.78;5053839;28;20299;-67
2022/03/24 04:18:39;;;;;;;7.60;6.47;;;;;;;2.25;71.10;100106.47;5053895;28;20208;-68
2022/03/24 04:21:07;;;;;;;7.47;6.27;;;;;;;2.28;71.00;100091.31;5053971;28;20208;-68
2022/03/24 04:23:36;;;;;;;7.87;5.90;;;;;;;2.37;70.67;100096.50;5053806;28;20655;-68
2022/03/24 04:26:03;;;;;;;7.77;6.60;;;;;;;2.42;70.65;100092.38;5053762;28;20625;-67
2022/03/24 04:28:30;;;;;;;6.93;6.23;;;;;;;2.42;71.69;100085.63;5053763;28;20701;-68
2022/03/24 04:30:57;;;;;;;5.97;5.33;;;;;;;2.46;72.42;100078.91;5053501;28;20205;-67
2022/03/24 04:33:27;;;;;;;7.63;5.93;;;;;;;2.52;72.41;100081.53;5053730;28;20295;-67
2022/03/24 04:35:54;;;;;;;8.00;6.13;;;;;;;2.52;71.73;100073.94;5053440;28;20807;-68
2022/03/24 04:38:21;;;;;;;6.07;5.57;;;;;;;2.64;71.77;100081.69;5053422;28;20208;-67
2022/03/24 04:40:49;;;;;;;6.43;5.90;;;;;;;2.62;71.54;100078.28;5053465;28;20655;-68
2022/03/24 04:43:16;;;;;;;9.03;6.07;;;;;;;2.71;71.55;100083.47;5053278;28;20220;-68
2022/03/24 04:45:43;;;;;;;11.33;6.33;;;;;;;2.69;71.96;100095.25;5053301;28;20212;-68
2022/03/24 04:48:10;;;;;;;7.13;6.43;;;;;;;2.69;72.68;100095.25;5053292;28;20204;-68
2022/03/24 04:50:37;;;;;;;7.57;6.90;;;;;;;2.68;73.50;100098.63;5053251;28;20303;-68
2022/03/24 04:53:05;;;;;;;7.20;6.60;;;;;;;2.78;73.34;100085.22;5053055;28;20669;-67
2022/03/24 04:55:31;;;;;;;6.73;6.10;;;;;;;2.87;72.95;100087.88;5053097;28;20314;-68
2022/03/24 04:58:00;;;;;;;7.77;6.60;;;;;;;2.92;72.93;100093.84;5053084;28;20615;-67
2022/03/24 05:00:27;;;;;;;19.63;11.23;;;;;;;2.91;73.35;100097.19;5059923;28;20254;-67
2022/03/24 05:02:54;;;;;;;20.93;10.83;;;;;;;2.97;73.38;100087.13;5073055;28;20691;-68
2022/03/24 05:05:21;;;;;;;11.23;8.60;;;;;;;3.14;72.86;100097.44;5072768;28;20249;-68
2022/03/24 05:07:48;;;;;;;9.27;7.13;;;;;;;3.30;72.31;100091.72;5072966;28;20755;-68
2022/03/24 05:10:15;;;;;;;10.77;6.80;;;;;;;3.43;71.63;100087.59;5072641;28;20246;-67
2022/03/24 05:12:42;;;;;;;9.03;8.13;;;;;;;3.56;71.26;100094.50;5072851;28;20200;-67
2022/03/24 05:15:13;;;;;;;16.70;6.70;;;;;;;3.69;70.86;100091.22;5072540;28;20220;-68
2022/03/24 05:17:41;;;;;;;7.80;6.80;;;;;;;3.87;70.51;100086.31;5072785;28;20250;-68
2022/03/24 05:20:09;;;;;;;8.67;6.63;;;;;;;4.02;70.33;100086.44;5066504;28;20200;-68
2022/03/24 05:22:37;;;;;;;17.73;7.57;;;;;;;4.21;69.73;100088.25;5064022;28;20290;-68
2022/03/24 05:25:06;;;;;;;10.53;7.43;;;;;;;4.41;69.62;100075.66;5065670;28;20576;-68
2022/03/24 05:27:33;;;;;;;19.00;7.53;;;;;;;4.63;69.59;100076.63;5067773;28;20204;-68
2022/03/24 05:30:00;;;;;;;8.60;6.93;;;;;;;4.82;70.52;100080.94;5064429;28;20200;-68
2022/03/24 05:32:28;;;;;;;12.13;8.60;;;;;;;5.06;69.44;100081.03;5061122;28;20741;-68
2022/03/24 05:34:56;;;;;;;12.63;8.60;;;;;;;5.23;68.01;100056.47;5063855;28;20214;-68
2022/03/24 05:37:22;;;;;;;9.67;7.70;;;;;;;5.62;66.51;100085.38;5061493;28;20200;-66
2022/03/24 05:39:50;;;;;;;17.67;8.53;;;;;;;5.92;65.96;100085.38;5059831;28;20235;-68
2022/03/24 05:42:17;;;;;;;12.50;9.63;;;;;;;6.25;64.57;100081.94;5058162;28;20204;-68
2022/03/24 05:44:44;;;;;;;15.17;9.30;;;;;;;6.46;64.35;100081.06;5062396;28;20675;-68
2022/03/24 05:47:11;;;;;;;11.43;7.83;;;;;;;6.71;63.49;100075.88;5059229;28;20203;-68
2022/03/24 05:49:39;;;;;;;7.77;6.73;;;;;;;7.05;63.14;100086.75;5060205;28;20672;-68
2022/03/24 05:52:07;;;;;;;9.17;6.77;;;;;;;7.32;62.18;100083.22;5062210;28;20725;-68
2022/03/24 05:54:34;;;;;;;7.57;6.77;;;;;;;7.68;61.54;100077.03;5066630;28;20303;-68
2022/03/24 05:57:02;;;;;;;7.30;5.80;;;;;;;7.93;59.78;100087.00;5064807;28;20275;-68
2022/03/24 05:59:28;;;;;;;7.00;6.40;;;;;;;8.23;59.70;100085.91;5061885;28;20684;-68
2022/03/24 06:01:56;;;;;;;6.70;5.80;;;;;;;8.53;58.06;100078.81;5060028;28;20200;-68
2022/03/24 06:04:25;;;;;;;6.93;5.93;;;;;;;8.79;57.64;100079.31;5065137;28;20678;-68
2022/03/24 06:06:55;;;;;;;7.70;6.00;;;;;;;9.09;56.76;100089.19;5056791;28;20283;-68
2022/03/24 06:09:22;;;;;;;6.67;5.87;;;;;;;9.31;55.11;100077.78;5062611;28;20230;-68
2022/03/24 06:11:49;;;;;;;19.13;6.30;;;;;;;9.56;54.25;100082.56;5065231;28;20204;-68
2022/03/24 06:14:17;;;;;;;6.60;5.70;;;;;;;9.77;54.52;100089.88;5060476;28;20283;-68
2022/03/24 06:16:44;;;;;;;8.00;7.20;;;;;;;10.04;53.85;100092.00;5057944;28;20291;-68
2022/03/24 06:19:11;;;;;;;13.13;6.00;;;;;;;10.31;50.97;100076.16;5059449;28;20200;-68
2022/03/24 06:21:38;;;;;;;6.07;5.47;;;;;;;10.49;49.09;100060.47;5067622;28;20207;-68
2022/03/24 06:24:08;;;;;;;8.03;5.80;;;;;;;10.70;49.47;100066.88;5062135;28;20200;-68
2022/03/24 06:26:35;;;;;;;11.40;5.70;;;;;;;10.84;48.88;100071.72;5058206;28;20658;-68
2022/03/24 06:29:02;;;;;;;6.73;5.63;;;;;;;10.95;48.50;100069.78;5059020;28;20204;-68
2022/03/24 06:31:30;;;;;;;6.53;5.93;;;;;;;11.15;48.69;100066.81;5062175;28;20295;-68
2022/03/24 06:33:57;;;;;;;11.37;6.13;;;;;;;11.33;47.76;100064.66;5059235;28;20222;-68
2022/03/24 06:36:24;;;;;;;7.77;5.20;;;;;;;11.49;48.37;100066.00;5069616;28;20212;-69
2022/03/24 06:38:51;;;;;;;6.07;5.47;;;;;;;11.69;47.86;100064.69;5065742;28;20204;-69
2022/03/24 06:41:19;;;;;;;6.87;6.03;;;;;;;11.88;45.56;100064.25;5055516;28;20208;-69
2022/03/24 06:43:47;;;;;;;11.50;5.17;;;;;;;12.02;45.02;100069.00;5055411;28;20232;-68
2022/03/24 06:46:14;;;;;;;8.70;5.60;;;;;;;12.10;45.88;100067.09;5055235;28;20291;-68
2022/03/24 06:48:41;;;;;;;9.70;6.40;;;;;;;12.12;46.52;100044.75;5069796;28;20200;-68
2022/03/24 06:51:09;;;;;;;11.80;5.73;;;;;;;12.34;44.43;100051.03;5075392;28;20686;-68
2022/03/24 06:53:35;;;;;;;8.47;5.77;;;;;;;12.37;43.93;100056.09;5075641;28;20261;-68
2022/03/24 06:56:04;;;;;;;9.10;6.17;;;;;;;12.46;44.55;100053.28;5075324;28;20227;-68
2022/03/24 06:58:32;;;;;;;7.17;5.47;;;;;;;12.67;44.00;100058.69;5072119;28;20714;-67
2022/03/24 07:00:59;;;;;;;6.23;5.17;;;;;;;12.73;44.74;100053.41;5064453;28;20330;-67
2022/03/24 07:03:26;;;;;;;9.40;5.20;;;;;;;12.87;44.52;100057.25;5061612;28;20201;-67
2022/03/24 07:05:53;;;;;;;10.80;5.87;;;;;;;13.05;43.95;100061.84;5064952;28;20208;-65
2022/03/24 07:08:20;;;;;;;8.20;6.10;;;;;;;13.32;44.13;100055.06;5060952;28;20197;-71
2022/03/24 07:10:47;;;;;;;6.27;5.77;;;;;;;13.36;44.35;100046.34;5061768;28;20288;-68
2022/03/24 07:13:15;;;;;;;5.63;5.33;;;;;;;13.52;44.00;100052.72;5065532;28;20703;-68
2022/03/24 07:15:43;;;;;;;11.83;6.50;;;;;;;13.74;44.22;100042.56;5063985;28;20222;-68
2022/03/24 07:18:11;;;;;;;12.67;5.93;;;;;;;13.95;43.72;100041.84;5062097;28;20287;-68
2022/03/24 07:20:38;;;;;;;6.43;5.80;;;;;;;14.15;43.73;100039.41;5062904;28;20673;-66
2022/03/24 07:23:06;;;;;;;6.07;5.53;;;;;;;14.38;43.45;100036.06;5066464;28;20200;-67
2022/03/24 07:25:32;;;;;;;9.00;5.23;;;;;;;14.65;43.00;100040.25;5064350;28;20254;-70
2022/03/24 07:28:01;;;;;;;7.65;6.15;;;;;;;14.80;41.65;100043.19;5061606;28;20444;-67
2022/03/24 07:30:28;;;;;;;5.77;4.77;;;;;;;15.04;41.11;100037.06;5071338;28;20205;-67
2022/03/24 07:32:58;;;;;;;11.23;5.60;;;;;;;15.19;40.72;100031.31;5068237;28;20730;-64
2022/03/24 07:35:26;;;;;;;6.53;4.70;;;;;;;15.33;39.95;100039.38;5060749;28;20504;-67
2022/03/24 07:37:53;;;;;;;7.67;4.57;;;;;;;15.46;40.06;100032.81;5065977;28;20201;-65
2022/03/24 07:40:22;;;;;;;5.70;5.20;;;;;;;15.65;39.68;100035.53;5062587;28;20303;-65
2022/03/24 07:42:49;;;;;;;4.83;4.43;;;;;;;15.84;38.69;100051.13;5055152;28;20201;-65
2022/03/24 07:45:16;;;;;;;6.70;4.67;;;;;;;15.99;38.96;100046.19;5061550;28;20743;-65
2022/03/24 07:48:08;;;;;;;4.87;4.47;;;;;;;16.14;37.84;100036.91;5066980;28;20218;-65
2022/03/24 07:50:35;;;;;;;10.17;4.33;;;;;;;16.42;38.46;100039.97;5066691;28;20206;-64
2022/03/24 07:53:24;;;;;;;4.67;4.27;;;;;;;16.57;38.41;100041.94;5057839;28;20211;-65
2022/03/24 07:55:50;;;;;;;8.97;4.13;;;;;;;16.75;38.40;100046.31;5070995;28;20676;-65
2022/03/24 07:58:18;;;;;;;5.20;4.70;;;;;;;16.95;38.07;100039.38;5059037;28;20769;-66
2022/03/24 08:00:45;;;;;;;5.27;4.97;;;;;;;17.04;36.87;100033.75;5070178;28;20207;-65
2022/03/24 08:03:15;;;;;;;7.30;4.80;;;;;;;17.13;35.92;100043.69;5059482;28;20280;-65
2022/03/24 08:05:42;;;;;;;6.07;5.23;;;;;;;17.31;36.70;100035.06;5067377;28;20287;-64
2022/03/24 08:08:10;;;;;;;10.13;4.90;;;;;;;17.25;35.74;100017.22;5062087;28;20605;-66
2022/03/24 08:10:37;;;;;;;5.77;4.87;;;;;;;17.55;35.21;100030.44;5055589;28;20261;-65
2022/03/24 08:13:05;;;;;;;10.37;5.53;;;;;;;17.66;35.91;100026.47;5060677;28;20755;-66
2022/03/24 08:15:33;;;;;;;7.17;5.40;;;;;;;17.77;34.91;100029.34;5067481;28;20223;-65
2022/03/24 08:17:59;;;;;;;10.67;5.13;;;;;;;17.80;35.01;100023.19;5070195;28;20291;-66
2022/03/24 08:20:28;;;;;;;6.60;4.93;;;;;;;17.89;34.31;100019.28;5066549;28;20214;-66
2022/03/24 08:22:55;;;;;;;6.43;5.33;;;;;;;17.97;33.72;100017.13;5054636;28;20215;-65
2022/03/24 08:25:23;;;;;;;7.80;5.27;;;;;;;18.18;35.15;100013.47;5053317;28;20196;-66
2022/03/24 08:27:50;;;;;;;8.90;5.17;;;;;;;18.39;33.54;100009.75;5069193;28;20204;-66
2022/03/24 08:30:16;;;;;;;5.73;5.30;;;;;;;18.34;32.95;100012.59;5064431;28;20196;-66
2022/03/24 08:32:43;;;;;;;6.47;5.03;;;;;;;18.47;33.77;100012.78;5062529;28;20221;-65
2022/03/24 08:35:11;;;;;;;10.07;5.13;;;;;;;18.52;32.59;100013.41;5069623;28;20199;-66
2022/03/24 08:37:39;;;;;;;5.90;5.37;;;;;;;18.57;33.46;100011.41;5062258;28;20208;-66
2022/03/24 08:40:07;;;;;;;8.43;5.50;;;;;;;18.71;33.27;100005.47;5060452;28;20232;-66
2022/03/24 08:42:36;;;;;;;8.43;5.80;;;;;;;18.72;32.74;100005.38;5051440;28;20215;-65
2022/03/24 08:45:03;;;;;;;5.57;5.03;;;;;;;18.96;32.32;100005.00;5066333;28;20219;-65
2022/03/24 08:47:30;;;;;;;7.97;6.47;;;;;;;19.14;33.30;100009.16;5064628;28;20211;-65
2022/03/24 08:49:57;;;;;;;12.23;5.63;;;;;;;19.15;33.08;100000.44;5063020;28;20633;-66
2022/03/24 08:52:25;;;;;;;5.37;4.87;;;;;;;19.31;34.63;100002.09;5069532;28;20211;-66
2022/03/24 08:54:54;;;;;;;11.37;5.73;;;;;;;19.41;30.53;99994.66;5065565;28;20585;-66
2022/03/24 08:57:26;;;;;;;6.03;5.50;;;;;;;19.53;29.97;99986.16;5068881;28;20221;-67
2022/03/24 08:59:54;;;;;;;9.07;5.67;;;;;;;19.61;31.66;99970.09;5060167;28;20231;-66
2022/03/24 09:02:21;;;;;;;7.73;6.27;;;;;;;19.75;32.89;99975.31;5059700;28;20683;-66
2022/03/24 09:04:48;;;;;;;8.47;6.13;;;;;;;19.85;29.09;99998.13;5056077;28;20200;-66
2022/03/24 09:07:15;;;;;;;7.80;7.07;;;;;;;20.07;29.43;99986.44;5064033;28;20279;-66
2022/03/24 09:09:42;;;;;;;12.80;6.60;;;;;;;20.20;28.27;99987.38;5063092;28;20249;-66
2022/03/24 09:12:11;;;;;;;6.60;5.80;;;;;;;20.39;30.03;99987.97;5059435;28;20185;-67
2022/03/24 09:14:39;;;;;;;8.33;5.83;;;;;;;20.47;28.37;99975.31;5064395;28;20282;-66
2022/03/24 09:17:07;;;;;;;6.50;5.97;;;;;;;20.53;28.65;99968.88;5062082;28;20257;-67
2022/03/24 09:19:34;;;;;;;7.57;6.87;;;;;;;20.64;28.51;99989.91;5065913;28;20283;-67
2022/03/24 09:22:01;;;;;;;9.53;6.03;;;;;;;20.77;28.80;99978.63;5071640;28;20203;-67
2022/03/24 09:24:28;;;;;;;7.00;6.33;;;;;;;20.78;27.98;99979.44;5066529;28;20286;-67
2022/03/24 09:26:55;;;;;;;8.20;7.07;;;;;;;20.87;27.57;99984.91;5057255;28;20200;-66
2022/03/24 09:29:23;;;;;;;27.77;8.40;;;;;;;21.03;28.74;99983.97;5070287;28;20198;-67
2022/03/24 09:31:51;;;;;;;10.77;7.50;;;;;;;21.03;26.56;99986.56;5060386;28;20206;-66
2022/03/24 09:34:18;;;;;;;8.80;6.13;;;;;;;21.09;29.08;99980.97;5071471;28;20755;-66
2022/03/24 09:36:45;;;;;;;10.93;7.30;;;;;;;21.15;25.24;99983.19;5071499;28;20583;-67
2022/03/24 09:39:14;;;;;;;9.17;7.63;;;;;;;21.09;25.42;99968.78;5071339;28;20286;-66
2022/03/24 09:41:43;;;;;;;7.20;6.30;;;;;;;21.20;27.83;99966.31;5071233;28;20259;-66
2022/03/24 09:44:11;;;;;;;15.63;7.63;;;;;;;20.99;26.70;99962.47;5066957;28;20841;-69
2022/03/24 09:46:41;;;;;;;10.13;7.40;;;;;;;21.00;25.99;99966.75;5062856;28;20207;-67
2022/03/24 09:49:11;;;;;;;8.07;7.13;;;;;;;20.86;25.49;99959.81;5052926;28;20538;-67
2022/03/24 09:51:40;;;;;;;7.07;6.10;;;;;;;20.65;25.17;99945.50;5056279;28;20643;-67
2022/03/24 09:54:10;;;;;;;9.03;7.20;;;;;;;20.69;26.82;99948.75;5063600;28;20728;-68
2022/03/24 09:56:37;;;;;;;7.40;6.63;;;;;;;20.96;29.29;99944.41;5066580;28;20212;-67
2022/03/24 09:59:04;;;;;;;11.07;6.83;;;;;;;21.09;28.61;99936.63;5068212;28;20769;-68
2022/03/24 10:01:31;;;;;;;6.87;6.37;;;;;;;21.31;28.74;99936.94;5059849;28;20656;-67
2022/03/24 10:04:09;;;;;;;9.40;6.30;;;;;;;21.41;26.84;99938.00;5061996;28;20204;-67
2022/03/24 10:06:39;;;;;;;8.20;7.40;;;;;;;21.36;26.95;99934.84;5061499;28;20250;-67
2022/03/24 10:09:06;;;;;;;7.43;6.83;;;;;;;21.39;27.78;99934.66;5057837;28;20584;-67
2022/03/24 10:11:35;;;;;;;11.03;6.10;;;;;;;21.36;28.04;99935.69;5059120;28;20258;-67
2022/03/24 10:14:03;;;;;;;7.00;6.50;;;;;;;21.41;27.83;99928.41;5063814;28;20202;-67
2022/03/24 10:16:44;;;;;;;29.83;8.27;;;;;;;21.28;26.49;99926.72;5057437;28;20307;-67
2022/03/24 10:19:14;;;;;;;7.40;6.80;;;;;;;21.44;27.15;99917.78;5061796;28;20258;-67
2022/03/24 10:21:43;;;;;;;9.10;6.77;;;;;;;21.63;27.22;99911.31;5062267;28;20283;-67
2022/03/24 10:24:14;;;;;;;8.57;6.97;;;;;;;21.70;27.17;99910.81;5062645;28;20288;-68
2022/03/24 10:26:47;;;;;;;6.80;6.30;;;;;;;21.52;26.40;99898.19;5062579;28;20577;-67
2022/03/24 10:29:15;;;;;;;7.60;6.80;;;;;;;21.52;27.63;99878.09;5059945;28;20197;-67
2022/03/24 10:31:43;;;;;;;8.53;7.10;;;;;;;21.73;27.40;99897.56;5056863;28;20203;-67
2022/03/24 10:34:12;;;;;;;7.43;6.70;;;;;;;21.80;28.49;99897.97;5063167;28;20222;-68
2022/03/24 10:36:42;;;;;;;7.23;6.60;;;;;;;21.83;27.68;99893.38;5060724;28;20228;-67
2022/03/24 10:39:09;;;;;;;8.47;7.77;;;;;;;21.70;26.77;99882.09;5069096;28;20261;-66
2022/03/24 10:41:37;;;;;;;7.77;7.13;;;;;;;21.90;27.07;99879.00;5065204;28;20198;-67
2022/03/24 10:44:07;;;;;;;8.10;7.30;;;;;;;21.94;28.73;99870.00;5058029;28;20237;-68
2022/03/24 10:46:36;;;;;;;10.97;9.17;;;;;;;21.91;27.67;99872.81;5058090;28;20203;-66
2022/03/24 10:49:20;;;;;;;7.97;6.80;;;;;;;21.94;26.66;99880.44;5062686;28;20331;-68
2022/03/24 10:51:50;;;;;;;7.43;6.90;;;;;;;21.93;25.32;99876.19;5065312;28;20693;-66
2022/03/24 10:54:31;;;;;;;8.17;7.37;;;;;;;21.85;25.82;99865.38;5060249;28;20210;-66
2022/03/24 10:57:04;;;;;;;10.97;7.60;;;;;;;21.83;24.49;99862.06;5056992;28;20223;-65
2022/03/24 10:59:34;;;;;;;12.37;7.07;;;;;;;21.68;25.78;99857.06;5063562;28;20242;-66
2022/03/24 11:02:02;;;;;;;7.37;6.83;;;;;;;21.76;26.51;99866.03;5061051;28;20207;-67
2022/03/24 11:04:30;;;;;;;10.87;6.87;;;;;;;21.76;25.26;99855.56;5060932;28;20204;-66
2022/03/24 11:06:57;;;;;;;10.97;9.70;;;;;;;21.83;26.28;99846.38;5056711;28;20201;-67
2022/03/24 11:09:27;;;;;;;8.07;6.83;;;;;;;21.78;25.23;99843.25;5055808;28;20288;-67
2022/03/24 11:12:26;;;;;;;8.10;7.23;;;;;;;21.83;27.10;99846.38;5059904;28;20601;-67
2022/03/24 11:14:55;;;;;;;8.67;7.17;;;;;;;21.94;25.56;99833.44;5066001;28;20211;-67
2022/03/24 11:17:24;;;;;;;8.53;7.13;;;;;;;21.87;26.84;99811.28;5054252;28;20317;-66
2022/03/24 11:20:04;;;;;;;9.27;7.07;;;;;;;22.03;26.51;99824.16;5070958;28;20210;-66
2022/03/24 11:22:40;;;;;;;7.47;6.90;;;;;;;21.96;25.33;99826.34;5062415;28;20649;-67
2022/03/24 11:25:08;;;;;;;7.57;6.70;;;;;;;21.83;22.27;99822.91;5055952;28;20285;-66
2022/03/24 11:27:35;;;;;;;6.93;5.60;;;;;;;21.78;22.12;99801.50;5055143;28;20287;-67
2022/03/24 11:30:04;;;;;;;5.80;5.40;;;;;;;21.68;21.05;99803.06;5056335;28;20550;-67
2022/03/24 11:32:34;;;;;;;6.23;5.83;;;;;;;21.58;20.76;99809.03;5067036;28;20198;-67
2022/03/24 11:35:03;;;;;;;6.70;5.10;;;;;;;21.75;22.55;99816.53;5074642;28;20209;-67